Hlavní strana
METAR-TAF:

METAR-TAF

Letiště :

Damašek, Sýrie

zeměpisná šířka: 33-25N, zeměpisná délka: 036-31E, výška: 608 m

Aktuální stav počasí

Zpráva byla vytvořena před 20 minutami, v 02:00 UTC
Jihojihozápadní vítr 10 kt
Teplota 21°C
Vlhkost vzduchu 69%
Tlak 1008 hPa
Viditelnost 10 km a více
Žádná oblačnost pod 1500 m, nevyskytují se cumulonimby.

METAR: OSDI 170200Z 21010KT CAVOK 21/15 Q1008

Čas: 05:20 (02:20 UTC)

Předpověď počasí

Zpráva byla vytvořena před 4 hodinami a 20 minutami, v 22:00 UTC
Předpověď platná od 17 v 00 UTC do 18 v 06 UTC
vítr z různých směrů 3 kt
Viditelnost 10 km a více
Žádná oblačnost pod 1500 m, nevyskytují se cumulonimby.
Dočasný
od 17 v 09 UTC do 17 v 18 UTC
Jihozápadní vítr 10 kt s nárazy do 20 kt
Viditelnost 10 km a více
Skoro jasno ve výšce 3000 ft

TAF: OSDI 162200Z 1700/1806 VRB03KT CAVOK TEMPO 1709/1718 22010G20KT 9999 FEW030

Stav a předpovědi počasí z více než 4 000 letišť (zprávy METAR a TAF).

Červené a žluté tečky na mapě představují dostupné meteorologické stanice.

Když kurzor umístíte na tečku, zobrazí se název stanice.

Pak kliknutím zobrazíte stav a předpověď počasí.

Chcete-li změnit mapu, kliknutím na zelené tlačítko se znaménkem +mapu přiblížíte, kliknutím na zelené tlačítko se znaménkem – mapu oddálíte a kliknutím na zelené šipky přejdete na sousední mapy.


METAR-TAF: